Gordon A Keenan — WDG6853 — position and weather

sailwx.info

Track history (hours):
 
Tides and Currents Weather Stations Pressure Air Temp Water Temp Dewpoint Dewpoint Depression Visibility Wind Speed Wind Dir Waves Ship Positions

Gordon A Keenan

Owner: Higman Barge Lines, Inc., Orange, TX. More information available from US FCC via Universal Licensing System and Coast Guard Vessel Documentation Center.

Last reported at 2017-Nov-08 21:07 UTC. Time now 2017-Nov-22 05:39 UTC.
Position N 31°60' W 091°05'.
Warning: this ship's position is 13 days out of date.

Length 24 m; draft 8.6 m.

Type: Towing. MMSI: 367561370.

Date/timePositionNaut miles runAvg speedWind from/ knotsBaromVisibWave heightAir tempDewpointWater temp
2017-Nov-08 21:07N 31°60' W 091°05'2 8.8
2017-Nov-08 20:55N 32°01' W 091°04'5 8.2
2017-Nov-08 20:17N 32°06' W 091°06'2 6.5
2017-Nov-08 20:00N 32°08' W 091°06'4 8.4
2017-Nov-08 19:30N 32°08' W 091°01'5 9.4
2017-Nov-08 19:00N 32°12' W 090°59'5 9.2
2017-Nov-08 18:30N 32°17' W 090°57'4 8.5
2017-Nov-08 18:00N 32°20' W 090°54'4 8.7
2017-Nov-08 17:30N 32°21' W 090°59'4 8.1
2017-Nov-08 17:00N 32°25' W 090°60'5 9.2
2017-Nov-08 16:30N 32°27' W 091°05'4 8.2
2017-Nov-08 16:00N 32°31' W 091°07'4 8.6
2017-Nov-08 15:30N 32°35' W 091°07'5 9.4
2017-Nov-08 15:00N 32°39' W 091°09'  
Track history (hours):
 
Tides and Currents Weather Stations Pressure Air Temp Water Temp Dewpoint Dewpoint Depression Visibility Wind Speed Wind Dir Waves Ship Positions

Gordon A Keenan

Owner: Higman Barge Lines, Inc., Orange, TX. More information available from US FCC via Universal Licensing System and Coast Guard Vessel Documentation Center.

Last reported at 2017-Nov-08 21:07 UTC. Time now 2017-Nov-22 05:39 UTC.
Position N 31°60' W 091°05'.
Warning: this ship's position is 13 days out of date.

Length 24 m; draft 8.6 m.

Type: Towing. MMSI: 367561370.

Date/timePositionNaut miles runAvg speedWind from/ knotsBaromVisibWave heightAir tempDewpointWater temp
2017-Nov-08 21:07N 31°60' W 091°05'2 8.8
2017-Nov-08 20:55N 32°01' W 091°04'5 8.2
2017-Nov-08 20:17N 32°06' W 091°06'2 6.5
2017-Nov-08 20:00N 32°08' W 091°06'4 8.4
2017-Nov-08 19:30N 32°08' W 091°01'5 9.4
2017-Nov-08 19:00N 32°12' W 090°59'5 9.2
2017-Nov-08 18:30N 32°17' W 090°57'4 8.5
2017-Nov-08 18:00N 32°20' W 090°54'4 8.7
2017-Nov-08 17:30N 32°21' W 090°59'4 8.1
2017-Nov-08 17:00N 32°25' W 090°60'5 9.2
2017-Nov-08 16:30N 32°27' W 091°05'4 8.2
2017-Nov-08 16:00N 32°31' W 091°07'4 8.6
2017-Nov-08 15:30N 32°35' W 091°07'5 9.4
2017-Nov-08 15:00N 32°39' W 091°09'  

Dump ship's entire track history